createdAt,value
2017-04-25T01:46:29.318Z,83.73
2017-04-25T01:47:09.835Z,83.64
2017-04-25T01:47:50.532Z,83.73
2017-04-25T01:48:32.198Z,83.54
2017-04-25T01:49:12.876Z,83.64
2017-04-25T01:49:53.596Z,83.83
2017-04-25T01:50:39.149Z,83.73
2017-04-25T01:51:24.756Z,83.83
2017-04-25T01:52:05.370Z,83.73
2017-04-25T01:52:47.065Z,83.64
2017-04-25T01:53:27.701Z,83.92
2017-04-25T01:54:09.378Z,83.54
2017-04-25T01:54:49.937Z,83.54
2017-04-25T01:55:30.604Z,83.73
2017-04-25T01:56:11.256Z,83.73
2017-04-25T01:56:51.911Z,83.64
2017-04-25T01:57:32.561Z,83.73
2017-04-25T01:58:15.239Z,83.64
2017-04-25T01:58:55.898Z,83.64
2017-04-25T01:59:37.623Z,83.54
2017-04-25T02:00:19.332Z,83.64
2017-04-25T02:00:59.856Z,83.64
2017-04-25T02:01:41.481Z,84.11
2017-04-25T02:02:24.119Z,83.73
2017-04-25T02:03:04.735Z,83.64
2017-04-25T02:03:45.259Z,83.64
2017-04-25T02:04:25.936Z,84.4
2017-04-25T02:05:06.669Z,84.4
2017-04-25T02:05:47.321Z,84.4
2017-04-25T02:06:27.863Z,84.4
2017-04-25T02:07:08.545Z,84.3
2017-04-25T02:07:49.260Z,84.3
2017-04-25T02:08:29.978Z,84.01
2017-04-25T02:09:10.521Z,84.3
2017-04-25T02:09:56.695Z,84.3
2017-04-25T02:10:37.376Z,84.21
2017-04-25T02:11:18.075Z,84.3
2017-04-25T02:11:58.591Z,84.4
2017-04-25T02:12:44.223Z,84.21
2017-04-25T02:13:24.899Z,84.21
2017-04-25T02:14:05.528Z,84.21
2017-04-25T02:14:46.085Z,84.11
2017-04-25T02:15:26.715Z,84.11
2017-04-25T02:16:08.361Z,84.11
2017-04-25T02:16:49.955Z,84.11
2017-04-25T02:17:30.488Z,84.21
2017-04-25T02:18:12.233Z,84.01
2017-04-25T02:18:52.932Z,84.21
2017-04-25T02:19:33.619Z,84.11
2017-04-25T02:20:14.136Z,84.11
2017-04-25T02:20:54.853Z,84.4
2017-04-25T02:21:35.425Z,84.11
2017-04-25T02:22:16.114Z,84.3
2017-04-25T02:22:56.654Z,84.4
2017-04-25T02:23:37.362Z,84.4
2017-04-25T02:24:18.053Z,84.49
2017-04-25T02:24:58.684Z,84.59
2017-04-25T02:25:39.337Z,84.49
2017-04-25T02:26:20.996Z,84.49
2017-04-25T02:27:01.662Z,84.59
2017-04-25T02:27:43.338Z,84.49
2017-04-25T02:28:23.991Z,84.59
2017-04-25T02:29:04.507Z,84.59
2017-04-25T02:29:45.155Z,84.4
2017-04-25T02:30:25.794Z,84.4
2017-04-25T02:31:06.314Z,84.49
2017-04-25T02:31:47.032Z,84.49
2017-04-25T02:32:27.647Z,84.59
2017-04-25T02:33:08.175Z,84.49
2017-04-25T02:33:48.850Z,84.49
2017-04-25T02:34:29.558Z,84.49
2017-04-25T02:35:10.257Z,84.11
2017-04-25T02:35:50.808Z,84.59
2017-04-25T02:36:31.462Z,84.49
2017-04-25T02:37:12.154Z,84.21
2017-04-25T02:37:52.861Z,84.59
2017-04-25T02:38:33.386Z,84.21
2017-04-25T02:39:14.109Z,84.4
2017-04-25T02:39:54.736Z,84.21
2017-04-25T02:40:35.378Z,84.4
2017-04-25T02:41:16.047Z,84.3
2017-04-25T02:41:56.703Z,84.4
2017-04-25T02:42:37.268Z,84.4
2017-04-25T02:43:17.907Z,84.3
2017-04-25T02:43:58.560Z,84.3
2017-04-25T02:44:39.195Z,84.4
2017-04-25T02:45:19.850Z,84.4
2017-04-25T02:46:00.497Z,84.3
2017-04-25T02:46:41.079Z,84.21
2017-04-25T02:47:21.732Z,84.3
2017-04-25T02:48:03.411Z,84.11
2017-04-25T02:48:44.051Z,84.4
2017-04-25T02:49:24.690Z,84.3
2017-04-25T02:50:05.237Z,84.4
2017-04-25T02:50:46.931Z,84.01
2017-04-25T02:51:27.568Z,84.4
2017-04-25T02:52:08.102Z,84.11
2017-04-25T02:52:48.694Z,84.4
2017-04-25T02:53:29.322Z,84.21
2017-04-25T02:54:09.854Z,84.3
2017-04-25T02:54:50.574Z,84.21
2017-04-25T02:55:33.260Z,85.16
2017-04-25T02:56:13.889Z,84.21
2017-04-25T02:56:54.551Z,84.4
2017-04-25T02:57:35.222Z,84.97
2017-04-25T02:58:15.873Z,84.87
2017-04-25T02:58:56.510Z,84.3
2017-04-25T02:59:38.187Z,84.87
2017-04-25T03:00:18.850Z,84.59
2017-04-25T03:00:59.501Z,84.78
2017-04-25T03:01:40.160Z,84.4
2017-04-25T03:02:21.834Z,84.01
2017-04-25T03:03:02.482Z,84.4
2017-04-25T03:03:43.121Z,84.4
2017-04-25T03:04:23.826Z,84.59
2017-04-25T03:05:05.547Z,84.78
2017-04-25T03:05:46.071Z,84.68
2017-04-25T03:06:26.757Z,84.59
2017-04-25T03:07:07.474Z,84.59
2017-04-25T03:07:48.161Z,84.59
2017-04-25T03:08:28.706Z,84.59
2017-04-25T03:09:09.374Z,84.4
2017-04-25T03:09:50.082Z,84.3
2017-04-25T03:10:31.799Z,84.3
2017-04-25T03:11:12.303Z,84.68
2017-04-25T03:11:57.748Z,84.4
2017-04-25T03:12:38.434Z,84.4
2017-04-25T03:13:19.117Z,84.4
2017-04-25T03:14:06.242Z,84.3
2017-04-25T03:14:46.894Z,84.3
2017-04-25T03:15:27.531Z,84.3
2017-04-25T03:16:08.197Z,84.59
2017-04-25T03:16:48.850Z,84.3
2017-04-25T03:17:29.508Z,84.83
2017-04-25T03:18:11.192Z,84.78
2017-04-25T03:18:51.828Z,84.87
2017-04-25T03:19:32.506Z,84.83
2017-04-25T03:20:13.136Z,84.83
2017-04-25T03:20:54.714Z,85.02
2017-04-25T03:21:36.315Z,84.83
2017-04-25T03:22:17.150Z,85.02
2017-04-25T03:22:58.568Z,84.78
2017-04-25T03:23:39.879Z,85.25
2017-04-25T03:24:22.562Z,85.16
2017-04-25T03:25:03.149Z,85.16
2017-04-25T03:25:43.865Z,84.59
2017-04-25T03:26:24.515Z,85.06
2017-04-25T03:27:05.220Z,84.87
2017-04-25T03:27:46.789Z,85.06
2017-04-25T03:28:27.311Z,85.06
2017-04-25T03:29:10.563Z,85.16
2017-04-25T03:29:51.085Z,85.25
2017-04-25T03:30:33.530Z,85.25
2017-04-25T03:31:15.176Z,85.25
2017-04-25T03:31:56.450Z,85.16
2017-04-25T03:32:38.066Z,85.16
2017-04-25T03:33:18.567Z,84.97
2017-04-25T03:33:58.451Z,85.16
2017-04-25T03:34:40.075Z,84.87
2017-04-25T03:35:20.571Z,85.06
2017-04-25T03:36:02.565Z,84.97
2017-04-25T03:36:43.221Z,85.06
2017-04-25T03:37:25.574Z,85.16
2017-04-25T03:38:07.063Z,85.06
2017-04-25T03:38:47.314Z,85.06
2017-04-25T03:39:27.887Z,85.16
2017-04-25T03:40:14.515Z,84.97
2017-04-25T03:40:56.987Z,85.06
2017-04-25T03:41:39.068Z,85.16
2017-04-25T03:42:20.568Z,85.16
2017-04-25T03:43:01.184Z,85.16
2017-04-25T03:43:41.878Z,85.06
2017-04-25T03:44:22.484Z,85.35
2017-04-25T03:46:22.312Z,85.25
2017-04-25T03:47:03.698Z,85.16
2017-04-25T03:47:46.157Z,84.97
2017-04-25T03:48:27.658Z,85.06
2017-04-25T03:49:07.327Z,85.16
2017-04-25T03:49:50.658Z,85.06
2017-04-25T03:50:34.157Z,85.06
2017-04-25T03:51:16.171Z,85.16
2017-04-25T03:51:56.641Z,85.25
2017-04-25T03:52:38.412Z,84.97
2017-04-25T03:53:21.801Z,85.25
2017-04-25T03:54:02.625Z,85.25
2017-04-25T03:54:44.658Z,85.25
2017-04-25T03:55:24.661Z,85.06
2017-04-25T03:56:05.722Z,85.25
2017-04-25T03:56:46.661Z,85.25
2017-04-25T03:57:27.659Z,85.35
2017-04-25T03:58:08.307Z,84.97
2017-04-25T03:58:49.876Z,85.25
2017-04-25T03:59:30.509Z,85.25
2017-04-25T04:00:11.031Z,84.87
2017-04-25T04:00:52.458Z,84.97
2017-04-25T04:01:33.085Z,84.97
2017-04-25T04:02:14.170Z,85.06
2017-04-25T04:02:55.660Z,85.06
2017-04-25T04:03:36.663Z,84.87
2017-04-25T04:04:17.021Z,85.16
2017-04-25T04:04:58.661Z,84.87
2017-04-25T04:05:39.220Z,84.78
2017-04-25T04:06:20.802Z,84.97
2017-04-25T04:07:02.161Z,84.87
2017-04-25T04:07:44.690Z,84.97
2017-04-25T04:08:25.312Z,84.87
2017-04-25T04:09:07.548Z,84.78
2017-04-25T04:09:48.816Z,84.87
2017-04-25T04:10:30.125Z,85.16
2017-04-25T04:11:13.662Z,84.87
2017-04-25T04:11:54.558Z,84.87
2017-04-25T04:12:36.133Z,84.87
2017-04-25T04:13:18.425Z,84.87
2017-04-25T04:13:58.927Z,84.78
2017-04-25T04:14:41.596Z,84.87
2017-04-25T04:15:22.818Z,84.97
2017-04-25T04:16:03.408Z,84.97
2017-04-25T04:16:44.128Z,85.16
2017-04-25T04:17:25.083Z,84.97
2017-04-25T04:18:06.851Z,84.59
2017-04-25T04:18:47.448Z,84.59
2017-04-25T04:19:28.059Z,85.44
2017-04-25T04:20:08.952Z,85.35
2017-04-25T04:20:51.118Z,84.97
2017-04-25T04:21:36.168Z,84.97
2017-04-25T04:22:16.596Z,84.87
2017-04-25T04:22:58.167Z,85.06
2017-04-25T04:23:37.717Z,84.59
2017-04-25T04:24:18.321Z,84.97
2017-04-25T04:25:00.548Z,84.87
2017-04-25T04:25:43.030Z,84.87
2017-04-25T04:26:23.667Z,84.87
2017-04-25T04:27:06.164Z,84.97
2017-04-25T04:27:47.672Z,84.97
2017-04-25T04:28:28.664Z,84.87
2017-04-25T04:29:08.317Z,84.87
2017-04-25T04:29:48.857Z,84.87
2017-04-25T04:30:31.144Z,85.16
2017-04-25T04:31:12.676Z,84.87
2017-04-25T04:31:52.443Z,84.87
2017-04-25T04:32:35.669Z,85.16
2017-04-25T04:33:15.617Z,85.06
2017-04-25T04:33:57.175Z,84.97
2017-04-25T04:34:39.166Z,85.25
2017-04-25T04:35:20.300Z,84.97
2017-04-25T04:36:01.632Z,85.06
2017-04-25T04:36:44.168Z,85.16
2017-04-25T04:37:24.808Z,85.06
2017-04-25T04:38:05.485Z,85.25
2017-04-25T04:38:45.999Z,84.68
2017-04-25T04:39:31.166Z,84.68
2017-04-25T04:40:12.665Z,84.87
2017-04-25T04:40:52.175Z,84.59
2017-04-25T04:41:32.678Z,84.21
2017-04-25T04:42:13.665Z,84.3
2017-04-25T04:42:55.167Z,84.4
2017-04-25T04:43:35.383Z,84.4
2017-04-25T04:44:16.004Z,84.59
2017-04-25T04:44:57.171Z,84.59
2017-04-25T04:45:39.852Z,84.97
2017-04-25T04:46:20.526Z,84.68
2017-04-25T04:47:01.139Z,84.59
2017-04-25T04:47:42.783Z,84.3
2017-04-25T04:48:24.169Z,84.21
2017-04-25T04:49:04.671Z,84.11
2017-04-25T04:49:44.735Z,84.21
2017-04-25T04:50:26.190Z,84.21
2017-04-25T04:51:05.938Z,84.4
2017-04-25T04:51:49.375Z,84.4
2017-04-25T04:52:31.749Z,84.4
2017-04-25T04:53:12.339Z,84.3
2017-04-25T04:53:52.875Z,84.4
2017-04-25T04:54:33.564Z,84.59
2017-04-25T04:55:14.304Z,84.49
2017-04-25T04:55:57.766Z,84.49
2017-04-25T04:56:39.112Z,84.49
2017-04-25T04:57:21.176Z,84.49
2017-04-25T04:58:02.242Z,84.49
2017-04-25T04:58:43.671Z,84.49
2017-04-25T04:59:24.817Z,84.4
2017-04-25T05:00:05.450Z,84.4
2017-04-25T05:00:48.168Z,84.21
2017-04-25T05:01:27.446Z,84.59
2017-04-25T05:02:09.355Z,84.3
2017-04-25T05:02:50.000Z,84.21
2017-04-25T05:03:32.237Z,84.01
2017-04-25T05:04:12.830Z,84.01
2017-04-25T05:04:54.506Z,84.01
2017-04-25T05:05:35.148Z,84.01
2017-04-25T05:06:15.807Z,84.01
2017-04-25T05:06:59.171Z,84.11
2017-04-25T05:07:40.501Z,84.11
2017-04-25T05:08:21.147Z,84.11
2017-04-25T05:09:02.325Z,84.21
2017-04-25T05:09:45.169Z,84.21
2017-04-25T05:10:26.178Z,84.21
2017-04-25T05:11:08.155Z,84.3
2017-04-25T05:11:48.744Z,84.11
2017-04-25T05:12:31.673Z,84.3
2017-04-25T05:13:18.008Z,84.11
2017-04-25T05:13:58.658Z,84.3
2017-04-25T05:14:41.170Z,84.21
2017-04-25T05:15:21.079Z,84.21
2017-04-25T05:16:03.214Z,84.21
2017-04-25T05:16:43.841Z,84.3
2017-04-25T05:17:24.506Z,84.21
2017-04-25T05:18:05.150Z,84.3
2017-04-25T05:18:46.642Z,84.21
2017-04-25T05:19:27.286Z,84.21
2017-04-25T05:20:09.675Z,84.3
2017-04-25T05:20:50.334Z,84.11
2017-04-25T05:21:33.179Z,84.3
2017-04-25T05:22:19.355Z,84.3
2017-04-25T05:23:01.828Z,84.21
2017-04-25T05:23:50.567Z,84.4
2017-04-25T05:24:33.277Z,84.4
2017-04-25T05:25:14.922Z,84.21
2017-04-25T05:25:55.486Z,84.11
2017-04-25T05:26:36.064Z,83.73
2017-04-25T05:27:18.619Z,83.64
2017-04-25T05:27:59.205Z,83.73
2017-04-25T05:28:46.813Z,83.64
2017-04-25T05:29:29.100Z,83.73
2017-04-25T05:30:09.827Z,83.54
2017-04-25T05:30:52.481Z,83.73
2017-04-25T05:31:33.013Z,83.54
2017-04-25T05:32:13.707Z,83.73
2017-04-25T05:32:55.416Z,83.64
2017-04-25T05:33:38.137Z,83.54
2017-04-25T05:34:18.659Z,83.64
2017-04-25T05:34:59.269Z,83.83
2017-04-25T05:35:41.126Z,83.45
2017-04-25T05:36:21.804Z,83.16
2017-04-25T05:37:07.418Z,83.07
2017-04-25T05:37:52.873Z,83.36
2017-04-25T05:38:38.403Z,83.26
2017-04-25T05:39:20.136Z,83.26
2017-04-25T05:40:02.783Z,83.36
2017-04-25T05:40:43.502Z,83.16
2017-04-25T05:41:24.186Z,83.36
2017-04-25T05:42:09.870Z,83.54
2017-04-25T05:42:50.777Z,83.07
2017-04-25T05:43:38.236Z,83.07
2017-04-25T05:44:23.788Z,83.07
2017-04-25T05:45:04.438Z,83.16
2017-04-25T05:45:50.863Z,83.07
2017-04-25T05:46:31.624Z,82.59
2017-04-25T05:47:14.296Z,82.78
2017-04-25T05:47:54.940Z,82.59
2017-04-25T05:48:35.649Z,82.59
2017-04-25T05:49:17.384Z,82.5
2017-04-25T05:49:58.060Z,82.5
2017-04-25T05:50:43.580Z,82.4
2017-04-25T05:51:24.092Z,82.12
2017-04-25T05:52:04.796Z,82.5
2017-04-25T05:52:45.499Z,82.31
2017-04-25T05:53:32.039Z,82.5
2017-04-25T05:54:12.574Z,82.31
2017-04-25T05:54:53.256Z,82.31
2017-04-25T05:55:33.949Z,82.31
2017-04-25T05:56:14.659Z,82.12
2017-04-25T05:56:55.169Z,81.74
2017-04-25T05:57:35.903Z,82.12
2017-04-25T05:58:28.142Z,81.84
2017-04-25T05:59:08.729Z,81.55
2017-04-25T05:59:56.110Z,81.26
2017-04-25T06:00:41.220Z,81.55
2017-04-25T06:01:23.823Z,81.26
2017-04-25T06:02:04.457Z,80.79
2017-04-25T06:02:45.022Z,81.26
2017-04-25T06:03:25.571Z,80.51
2017-04-25T06:04:06.140Z,80.79
2017-04-25T06:04:47.729Z,80.88
2017-04-25T06:05:28.311Z,80.32
2017-04-25T06:06:08.831Z,80.22
2017-04-25T06:06:50.738Z,80.35
2017-04-25T06:07:32.279Z,79.46
2017-04-25T06:08:12.875Z,79.69
2017-04-25T06:08:53.393Z,79.22
2017-04-25T06:09:33.995Z,79.03
2017-04-25T06:10:14.584Z,79.12
2017-04-25T06:10:57.165Z,78.93
2017-04-25T06:11:37.693Z,79.12
2017-04-25T06:12:18.236Z,78.55
2017-04-25T06:12:58.789Z,79.03
2017-04-25T06:13:40.382Z,78.64
2017-04-25T06:14:21.120Z,78.45
2017-04-25T06:15:02.725Z,78.17
2017-04-25T06:15:43.339Z,77.79
2017-04-25T06:16:25.024Z,77.6
2017-04-25T06:17:06.603Z,78.02
2017-04-25T06:17:47.453Z,77.83
2017-04-25T06:18:29.085Z,77.64
2017-04-25T06:19:09.738Z,77.64
2017-04-25T06:19:50.356Z,77.45
2017-04-25T06:20:30.897Z,77.17
2017-04-25T06:21:12.463Z,76.78
2017-04-25T06:21:53.022Z,76.88
2017-04-25T06:22:35.623Z,76.59
2017-04-25T06:23:17.218Z,76.5
2017-04-25T06:23:57.786Z,76.31
2017-04-25T06:24:40.352Z,76.31
2017-04-25T06:25:21.951Z,75.84
2017-04-25T06:26:04.527Z,76.03
2017-04-25T06:26:45.037Z,76.31
2017-04-25T06:27:30.213Z,76.31
2017-04-25T06:28:17.567Z,75.93
2017-04-25T06:29:02.979Z,75.55
2017-04-25T06:29:43.496Z,75.64
2017-04-25T06:30:24.133Z,75.36
2017-04-25T06:31:06.732Z,75.26
2017-04-25T06:31:49.330Z,74.98
2017-04-25T06:32:29.934Z,74.79
2017-04-25T06:33:10.468Z,74.98
2017-04-25T06:33:51.079Z,74.88
2017-04-25T06:34:31.693Z,74.6
2017-04-25T06:35:12.299Z,74.6
2017-04-25T06:35:53.884Z,74.51
2017-04-25T06:36:34.415Z,74.41
2017-04-25T06:37:15.014Z,74.41
2017-04-25T06:37:55.606Z,74.41
2017-04-25T06:38:36.192Z,74.12
2017-04-25T06:39:16.702Z,74.41
2017-04-25T06:39:57.321Z,74.88
2017-04-25T06:40:37.910Z,74.03
2017-04-25T06:41:18.658Z,74.03
2017-04-25T06:41:59.181Z,74.12
2017-04-25T06:42:39.816Z,73.65
2017-04-25T06:43:20.407Z,73.65
2017-04-25T06:44:01.111Z,73.55
2017-04-25T06:44:41.633Z,73.74
2017-04-25T06:45:22.348Z,73.18
2017-04-25T06:46:02.861Z,73.18
2017-04-25T06:46:43.522Z,72.79
2017-04-25T06:47:24.079Z,72.89
2017-04-25T06:48:04.660Z,72.32
2017-04-25T06:48:45.288Z,72.22
2017-04-25T06:49:26.894Z,72.7
2017-04-25T06:50:07.494Z,72.13
2017-04-25T06:50:48.045Z,72.13
2017-04-25T06:51:28.643Z,71.84
2017-04-25T06:52:09.259Z,72.22
2017-04-25T06:52:49.774Z,71.84
2017-04-25T06:53:30.371Z,72.13
2017-04-25T06:54:11.009Z,71.59
2017-04-25T06:54:51.595Z,71.02
2017-04-25T06:55:32.240Z,71.02
2017-04-25T06:56:12.845Z,70.7
2017-04-25T06:56:53.410Z,71.08
2017-04-25T06:57:33.968Z,70.99
2017-04-25T06:58:14.534Z,70.89
2017-04-25T06:58:55.147Z,70.89
2017-04-25T06:59:35.826Z,71.37
2017-04-25T07:00:16.473Z,70.99
2017-04-25T07:00:57.021Z,71.18
2017-04-25T07:01:37.575Z,70.99
2017-04-25T07:02:18.220Z,71.18
2017-04-25T07:02:58.776Z,71.46
2017-04-25T07:03:39.319Z,71.84
2017-04-25T07:04:19.875Z,29.03
2017-04-25T07:05:00.426Z,71.9
2017-04-25T07:05:40.979Z,71.9
2017-04-25T07:06:21.526Z,72.19
2017-04-25T07:07:02.079Z,71.62
2017-04-25T07:07:42.621Z,72.09
2017-04-25T07:08:23.172Z,72.19
2017-04-25T07:09:03.726Z,72.28
2017-04-25T07:09:44.278Z,72.38
2017-04-25T07:10:24.825Z,72
2017-04-25T07:11:05.378Z,72.09
2017-04-25T07:11:45.936Z,72.09
2017-04-25T07:12:26.490Z,72.19
2017-04-25T07:13:07.031Z,72.19
2017-04-25T07:13:47.582Z,72.19
2017-04-25T07:14:28.101Z,72.09
2017-04-25T07:15:08.683Z,71.9
2017-04-25T07:15:49.212Z,71.81
2017-04-25T08:02:29.830Z,63.42
2017-04-25T08:03:11.485Z,63.51
2017-04-25T08:03:52.027Z,63.32
2017-04-25T08:04:32.589Z,63.17
2017-04-25T08:05:27.723Z,63.07
2017-04-25T08:06:13.015Z,62.78
2017-04-25T08:07:09.347Z,62.3
2017-04-25T08:07:49.890Z,62.02
2017-04-25T08:08:30.462Z,62.3
2017-04-25T08:09:15.975Z,62.02
2017-04-25T08:10:02.412Z,61.93
2017-04-25T08:10:43.968Z,62.02
2017-04-25T08:11:35.193Z,61.74
2017-04-25T08:12:17.845Z,61.55
2017-04-25T08:12:58.464Z,61.45
2017-04-25T08:13:39.015Z,60.78
2017-04-25T08:14:21.602Z,60.97
2017-04-25T08:15:03.293Z,60.31
2017-04-25T08:15:45.888Z,60.12
2017-04-25T08:16:26.381Z,60.12
2017-04-25T08:17:06.989Z,59.93
2017-04-25T08:17:53.655Z,59.74
2017-04-25T08:18:35.337Z,59.83
2017-04-25T08:19:16.000Z,59.45
2017-04-25T08:19:57.636Z,59.55
2017-04-25T08:20:39.407Z,59.45
2017-04-25T08:21:20.098Z,59.67
2017-04-25T08:22:00.634Z,59.39
2017-04-25T08:22:42.225Z,59.01
2017-04-25T08:23:24.866Z,58.5
2017-04-25T08:24:05.474Z,58.31
2017-04-25T08:24:46.002Z,58.22
2017-04-25T08:25:26.598Z,58.59
2017-04-25T08:26:08.225Z,58.88
2017-04-25T08:26:54.659Z,58.69
2017-04-25T08:27:35.215Z,58.79
2017-04-25T08:28:15.865Z,58.79
2017-04-25T08:28:56.402Z,58.59
2017-04-25T08:29:36.968Z,57.93
2017-04-25T08:30:17.516Z,57.74
2017-04-25T08:30:58.059Z,57.55
2017-04-25T08:31:38.630Z,57.17
2017-04-25T08:32:20.196Z,56.88
2017-04-25T08:33:00.794Z,56.98
2017-04-25T08:33:41.395Z,57.07
2017-04-25T08:34:22.948Z,56.79
2017-04-25T08:35:04.562Z,57.45
2017-04-25T08:35:45.200Z,58.03
2017-04-25T08:36:26.830Z,58
2017-04-25T08:37:08.477Z,58.09
2017-04-25T08:37:49.088Z,58.09
2017-04-25T08:38:29.653Z,58.37
2017-04-25T08:39:10.192Z,29.52
2017-04-25T08:39:50.766Z,58.66
2017-04-25T08:40:32.345Z,58.66
2017-04-25T08:41:14.953Z,58.57
2017-04-25T08:41:55.567Z,58.69
2017-04-25T08:42:37.161Z,58.69
2017-04-25T08:43:17.811Z,58.31
2017-04-25T08:43:58.375Z,58.69
2017-04-25T08:44:38.899Z,58.22
2017-04-25T08:45:19.496Z,57.93
2017-04-25T08:46:00.102Z,57.93
2017-04-25T08:46:40.614Z,57.74
2017-04-25T08:47:21.238Z,57.77
2017-04-25T08:48:03.881Z,58.25
2017-04-25T08:48:44.439Z,57.58
2017-04-25T08:49:24.968Z,57.58
2017-04-25T08:50:05.546Z,57.1
2017-04-25T08:50:46.113Z,57.1
2017-04-25T08:51:26.690Z,56.82
2017-04-25T08:52:08.259Z,56.53
2017-04-25T08:52:54.736Z,56.63
2017-04-25T08:53:36.284Z,56.63
2017-04-25T08:54:23.389Z,56.34
2017-04-25T08:55:03.922Z,56.53
2017-04-25T08:55:45.544Z,56.53
2017-04-25T08:56:26.125Z,57.01
2017-04-25T08:57:06.816Z,56.41
2017-04-25T08:57:47.369Z,56.7
2017-04-25T08:58:39.649Z,56.22
2017-04-25T08:59:21.336Z,56.41
2017-04-25T09:00:02.106Z,56.22
2017-04-25T09:00:42.676Z,56.6
2017-04-25T09:01:25.981Z,56.98
2017-04-25T09:02:06.709Z,56.88
2017-04-25T09:02:47.326Z,57.45
2017-04-25T09:03:28.610Z,57.26
2017-04-25T09:04:13.778Z,57.81
2017-04-25T09:04:54.735Z,58.18
2017-04-25T09:05:35.384Z,57.9
2017-04-25T09:06:17.057Z,58.31
2017-04-25T09:06:58.615Z,58.22
2017-04-25T09:07:39.347Z,58.12
2017-04-25T09:08:21.414Z,58.12
2017-04-25T09:09:04.100Z,58.12
2017-04-25T09:09:44.655Z,57.93
2017-04-25T09:10:26.343Z,57.74
2017-04-25T09:11:07.976Z,58.03
2017-04-25T09:11:48.615Z,57.84
2017-04-25T09:12:29.273Z,58.12
2017-04-25T09:13:09.928Z,57.45
2017-04-25T09:13:50.487Z,57.17
2017-04-25T09:14:31.030Z,57.45
2017-04-25T09:15:11.594Z,57.45
2017-04-25T09:15:52.191Z,57.17
2017-04-25T09:16:32.744Z,57.55
2017-04-25T09:17:13.318Z,57.55
2017-04-25T09:17:53.911Z,57.07
2017-04-25T09:18:34.504Z,57.1
2017-04-25T09:19:15.005Z,57.26
2017-04-25T09:19:55.637Z,57.2
2017-04-25T09:20:36.216Z,56.92
2017-04-25T09:21:16.824Z,56.92
2017-04-25T09:21:57.348Z,56.72
2017-04-25T09:22:39.990Z,56.18
2017-04-25T09:23:20.574Z,55.99
2017-04-25T09:24:01.157Z,56.18
2017-04-25T09:24:41.697Z,56.09
2017-04-25T09:25:24.221Z,55.7
2017-04-25T09:26:05.826Z,55.8
2017-04-25T09:26:53.222Z,55.49
2017-04-25T09:27:33.756Z,55.87
2017-04-25T09:28:14.326Z,55.49
2017-04-25T09:28:59.674Z,55.39
2017-04-25T09:29:40.363Z,55.68
2017-04-25T09:30:21.010Z,55.58
2017-04-25T09:31:01.634Z,55.77
2017-04-25T09:31:42.184Z,55.42
2017-04-25T09:32:22.733Z,55.22
2017-04-25T09:33:03.286Z,55.04
2017-04-25T09:33:43.945Z,54.85
2017-04-25T09:34:24.479Z,55.13
2017-04-25T09:35:05.078Z,55.13
2017-04-25T09:35:47.617Z,54.94
2017-04-25T09:36:28.152Z,55.22
2017-04-25T09:37:08.740Z,55.32
2017-04-25T09:37:50.409Z,55.32
2017-04-25T09:38:30.965Z,55.13
2017-04-25T09:39:11.449Z,55.1
2017-04-25T09:39:54.065Z,54.91
2017-04-25T09:40:34.736Z,55.01
2017-04-25T09:41:15.273Z,55.68
2017-04-25T09:41:55.869Z,55.29
2017-04-25T09:42:37.464Z,55.87
2017-04-25T09:43:19.030Z,56.05
2017-04-25T09:43:59.693Z,56.05
2017-04-25T09:44:40.187Z,56.53
2017-04-25T09:45:20.726Z,55.96
2017-04-25T09:46:01.328Z,56.05
2017-04-25T09:46:41.874Z,56.15
2017-04-25T09:47:22.471Z,55.68
2017-04-25T09:48:03.064Z,55.77
2017-04-25T09:48:43.645Z,55.96
2017-04-25T09:49:24.184Z,55.87
2017-04-25T09:50:04.816Z,56.05
2017-04-25T09:50:47.414Z,56.15
2017-04-25T09:51:27.940Z,56.63
2017-04-25T09:52:08.536Z,55.96
2017-04-25T09:52:49.128Z,56.15
2017-04-25T09:53:29.741Z,56.34
2017-04-25T09:54:10.255Z,56.15
2017-04-25T09:54:52.876Z,56.24
2017-04-25T09:55:34.466Z,55.8
2017-04-25T09:56:17.069Z,55.32
2017-04-25T09:56:57.600Z,55.13
2017-04-25T09:57:38.166Z,55.13
2017-04-25T09:58:18.818Z,55.16
2017-04-25T09:58:59.376Z,55.16
2017-04-25T09:59:39.917Z,54.88
2017-04-25T10:00:20.514Z,54.3
2017-04-25T10:01:01.104Z,54.21
2017-04-25T10:01:41.635Z,54.11
2017-04-25T10:02:23.245Z,54.11
2017-04-25T10:03:03.850Z,54.11
2017-04-25T10:03:45.472Z,54.21
2017-04-25T10:04:26.055Z,54.3
2017-04-25T10:05:07.596Z,54.3
2017-04-25T10:05:48.201Z,54.39
2017-04-25T10:06:28.788Z,54.47
2017-04-25T10:07:09.333Z,54.85
2017-04-25T10:07:49.899Z,55.22
2017-04-25T10:08:30.499Z,55.04
2017-04-25T10:09:11.082Z,55.04
2017-04-25T10:09:51.612Z,55.13
2017-04-25T10:10:32.216Z,55.04
2017-04-25T10:11:12.806Z,55.04
2017-04-25T10:11:55.329Z,54.94
2017-04-25T10:12:35.849Z,54.94
2017-04-25T10:13:17.468Z,55.22
2017-04-25T10:13:58.062Z,55.1
2017-04-25T10:14:38.663Z,55.1
2017-04-25T10:15:19.186Z,55.01
2017-04-25T10:15:59.774Z,55.22
2017-04-25T10:16:40.337Z,55.04
2017-04-25T10:17:20.884Z,54.85
2017-04-25T10:18:01.443Z,54.85
2017-04-25T10:18:41.986Z,55.13
2017-04-25T10:19:22.526Z,55.22
2017-04-25T10:20:04.118Z,54.94
2017-04-25T10:20:44.700Z,55.1
2017-04-25T10:21:25.310Z,55.1
2017-04-25T10:22:05.819Z,55.1
2017-04-25T10:22:46.414Z,55.58
2017-04-25T10:23:27.014Z,55.87
2017-04-25T10:24:07.599Z,55.87
2017-04-25T10:24:48.114Z,55.96
2017-04-25T10:25:28.758Z,56.24
2017-04-25T10:26:10.403Z,56.15
2017-04-25T10:26:51.044Z,56.15
2017-04-25T10:27:31.719Z,56.72
2017-04-25T10:28:12.394Z,56.92
2017-04-25T10:28:53.035Z,56.72
2017-04-25T10:29:33.663Z,56.82
2017-04-25T10:30:14.341Z,56.72
2017-04-25T10:30:54.980Z,56.92
2017-04-25T10:31:35.653Z,56.24
2017-04-25T10:32:16.301Z,56.44
2017-04-25T10:32:56.924Z,56.44
2017-04-25T10:33:37.608Z,56.44
2017-04-25T10:34:19.294Z,56.82
2017-04-25T10:35:00.948Z,57.17
2017-04-25T10:35:41.563Z,57.65
2017-04-25T10:36:22.064Z,57.74
2017-04-25T10:37:02.634Z,58.31
2017-04-25T10:37:43.232Z,59.36
2017-04-25T10:38:23.763Z,59.93
2017-04-25T10:39:04.448Z,60.88
2017-04-25T10:39:45.088Z,61.23
2017-04-25T10:40:26.081Z,61.99
2017-04-25T10:41:08.771Z,62.85
2017-04-25T10:41:49.406Z,62.94
2017-04-25T10:42:30.078Z,63.51
2017-04-25T10:43:10.711Z,63.7
2017-04-25T10:43:51.353Z,63.99
2017-04-25T10:44:32.003Z,63.99
2017-04-25T10:45:12.516Z,64.27
2017-04-25T10:45:54.144Z,64.46
2017-04-25T10:46:34.767Z,65.03
2017-04-25T10:47:15.448Z,65.13
2017-04-25T10:47:55.968Z,65.25
2017-04-25T10:48:36.660Z,64.94
2017-04-25T10:49:17.248Z,64.97
2017-04-25T10:49:57.843Z,65.25
2017-04-25T10:50:38.497Z,65.35
2017-04-25T10:51:20.181Z,65.35
2017-04-25T10:52:00.778Z,65.54
2017-04-25T10:52:41.485Z,64.87
2017-04-25T10:53:22.174Z,65.16
2017-04-25T10:54:02.795Z,64.97
2017-04-25T10:54:43.460Z,65.25
2017-04-25T10:55:24.100Z,64.81
2017-04-25T10:56:04.765Z,64.34
2017-04-25T10:56:45.430Z,64.53
2017-04-25T10:57:26.063Z,64.15
2017-04-25T10:58:06.715Z,63.67
2017-04-25T10:58:47.366Z,63.76
2017-04-25T10:59:29.044Z,63.76
2017-04-25T11:00:09.699Z,63.48
2017-04-25T11:00:50.338Z,63.2
2017-04-25T11:01:32.949Z,63.23
2017-04-25T11:02:13.597Z,63.1
2017-04-25T11:02:54.259Z,62.53
2017-04-25T11:03:34.915Z,62.53
2017-04-25T11:04:16.518Z,62.37
2017-04-25T11:04:57.303Z,62.18
2017-04-25T11:05:38.096Z,62.46
2017-04-25T11:06:18.675Z,61.8
2017-04-25T11:06:59.285Z,61.8
2017-04-25T11:07:39.943Z,61.42
2017-04-25T11:08:21.630Z,61.35
2017-04-25T11:09:02.267Z,60.97
2017-04-25T11:09:43.961Z,60.49
2017-04-25T11:10:24.517Z,60.49
2017-04-25T11:11:05.171Z,60.11
2017-04-25T11:11:45.808Z,59.45
2017-04-25T11:12:26.340Z,59.64
2017-04-25T11:13:07.107Z,59.16
2017-04-25T11:13:47.763Z,59.16
2017-04-25T11:14:28.379Z,59.06
2017-04-25T11:15:10.004Z,59.06
2017-04-25T11:15:50.665Z,59.06
2017-04-25T11:16:32.576Z,59.26
2017-04-25T11:17:14.249Z,59.54
2017-04-25T11:17:55.015Z,59.64
2017-04-25T11:18:35.584Z,59.54
2017-04-25T11:19:16.704Z,59.74
2017-04-25T11:19:57.367Z,59.99
2017-04-25T11:20:38.020Z,60.66
2017-04-25T11:21:18.664Z,60.85
2017-04-25T11:21:59.337Z,61.51
2017-04-25T11:22:39.962Z,61.42
2017-04-25T11:23:20.607Z,62.15
2017-04-25T11:24:01.250Z,62.05
2017-04-25T11:24:41.915Z,62.43
2017-04-25T11:25:22.550Z,63.01
2017-04-25T11:26:03.142Z,63.32
2017-04-25T11:26:43.738Z,63.48
2017-04-25T11:27:24.255Z,63.99
2017-04-25T11:28:04.858Z,63.8